sensor_id;sensor_type;location;lat;lon;timestamp;temperature;humidity
15834;DHT22;8017;50.812;4.934;2022-12-11T00:00:45;1.80;99.90
15834;DHT22;8017;50.812;4.934;2022-12-11T00:03:47;1.80;99.90
15834;DHT22;8017;50.812;4.934;2022-12-11T00:06:51;1.80;99.90
15834;DHT22;8017;50.812;4.934;2022-12-11T00:09:53;1.80;99.90
15834;DHT22;8017;50.812;4.934;2022-12-11T00:12:55;1.70;99.90
15834;DHT22;8017;50.812;4.934;2022-12-11T00:15:58;1.60;99.90
15834;DHT22;8017;50.812;4.934;2022-12-11T00:19:00;1.70;99.90
15834;DHT22;8017;50.812;4.934;2022-12-11T00:22:03;1.60;99.90
15834;DHT22;8017;50.812;4.934;2022-12-11T00:25:06;1.60;99.90
15834;DHT22;8017;50.812;4.934;2022-12-11T00:28:08;1.50;99.90
15834;DHT22;8017;50.812;4.934;2022-12-11T00:31:13;1.60;99.90
15834;DHT22;8017;50.812;4.934;2022-12-11T00:34:15;1.60;99.90
15834;DHT22;8017;50.812;4.934;2022-12-11T00:37:19;1.60;99.90
15834;DHT22;8017;50.812;4.934;2022-12-11T00:40:20;1.60;99.90
15834;DHT22;8017;50.812;4.934;2022-12-11T00:43:22;1.60;99.90
15834;DHT22;8017;50.812;4.934;2022-12-11T00:46:24;1.70;99.90
15834;DHT22;8017;50.812;4.934;2022-12-11T00:49:26;1.60;99.90
15834;DHT22;8017;50.812;4.934;2022-12-11T00:52:30;1.70;99.90
15834;DHT22;8017;50.812;4.934;2022-12-11T00:55:35;1.70;99.90
15834;DHT22;8017;50.812;4.934;2022-12-11T00:58:38;1.70;99.90
15834;DHT22;8017;50.812;4.934;2022-12-11T01:01:39;1.70;99.90
15834;DHT22;8017;50.812;4.934;2022-12-11T01:04:41;1.80;99.90
15834;DHT22;8017;50.812;4.934;2022-12-11T01:07:45;1.70;99.90
15834;DHT22;8017;50.812;4.934;2022-12-11T01:10:47;1.70;99.90
15834;DHT22;8017;50.812;4.934;2022-12-11T01:13:49;1.70;99.90
15834;DHT22;8017;50.812;4.934;2022-12-11T01:16:51;1.70;99.90
15834;DHT22;8017;50.812;4.934;2022-12-11T01:19:53;1.70;99.90
15834;DHT22;8017;50.812;4.934;2022-12-11T01:22:58;1.80;99.90
15834;DHT22;8017;50.812;4.934;2022-12-11T01:26:05;1.70;99.90
15834;DHT22;8017;50.812;4.934;2022-12-11T01:29:06;1.70;99.90
15834;DHT22;8017;50.812;4.934;2022-12-11T01:32:08;1.70;99.90
15834;DHT22;8017;50.812;4.934;2022-12-11T01:35:11;1.60;99.90
15834;DHT22;8017;50.812;4.934;2022-12-11T01:38:14;1.70;99.90
15834;DHT22;8017;50.812;4.934;2022-12-11T01:41:17;1.70;99.90
15834;DHT22;8017;50.812;4.934;2022-12-11T01:48:07;1.60;99.90
15834;DHT22;8017;50.812;4.934;2022-12-11T01:51:10;1.60;99.90
15834;DHT22;8017;50.812;4.934;2022-12-11T01:54:14;1.70;99.90
15834;DHT22;8017;50.812;4.934;2022-12-11T01:57:18;1.60;99.90
15834;DHT22;8017;50.812;4.934;2022-12-11T02:00:20;1.60;99.90
15834;DHT22;8017;50.812;4.934;2022-12-11T02:03:22;1.60;99.90
15834;DHT22;8017;50.812;4.934;2022-12-11T02:06:30;1.70;99.90
15834;DHT22;8017;50.812;4.934;2022-12-11T02:09:37;1.70;99.90
15834;DHT22;8017;50.812;4.934;2022-12-11T02:12:50;1.80;99.90
15834;DHT22;8017;50.812;4.934;2022-12-11T02:16:00;1.90;99.90
15834;DHT22;8017;50.812;4.934;2022-12-11T02:19:12;1.90;99.90
15834;DHT22;8017;50.812;4.934;2022-12-11T02:22:25;1.80;99.90
15834;DHT22;8017;50.812;4.934;2022-12-11T02:25:33;1.80;99.90
15834;DHT22;8017;50.812;4.934;2022-12-11T02:28:43;1.80;99.90
15834;DHT22;8017;50.812;4.934;2022-12-11T02:31:50;1.80;99.90
15834;DHT22;8017;50.812;4.934;2022-12-11T02:34:58;1.70;99.90
15834;DHT22;8017;50.812;4.934;2022-12-11T02:38:06;1.80;99.90
15834;DHT22;8017;50.812;4.934;2022-12-11T02:41:10;1.80;99.90
15834;DHT22;8017;50.812;4.934;2022-12-11T02:44:16;1.80;99.90
15834;DHT22;8017;50.812;4.934;2022-12-11T02:47:20;1.90;99.90
15834;DHT22;8017;50.812;4.934;2022-12-11T02:50:22;2.00;99.90
15834;DHT22;8017;50.812;4.934;2022-12-11T02:53:28;2.10;99.90
15834;DHT22;8017;50.812;4.934;2022-12-11T02:56:35;2.20;99.90
15834;DHT22;8017;50.812;4.934;2022-12-11T02:59:42;2.20;99.90
15834;DHT22;8017;50.812;4.934;2022-12-11T03:02:45;2.10;99.90
15834;DHT22;8017;50.812;4.934;2022-12-11T03:05:47;2.00;99.90
15834;DHT22;8017;50.812;4.934;2022-12-11T03:08:49;2.00;99.90
15834;DHT22;8017;50.812;4.934;2022-12-11T03:11:52;1.90;99.90
15834;DHT22;8017;50.812;4.934;2022-12-11T03:14:56;1.90;99.90
15834;DHT22;8017;50.812;4.934;2022-12-11T03:18:04;2.00;99.90
15834;DHT22;8017;50.812;4.934;2022-12-11T03:21:14;2.10;99.90
15834;DHT22;8017;50.812;4.934;2022-12-11T03:24:23;2.20;99.90
15834;DHT22;8017;50.812;4.934;2022-12-11T03:27:33;2.20;99.90
15834;DHT22;8017;50.812;4.934;2022-12-11T03:30:39;2.20;99.90
15834;DHT22;8017;50.812;4.934;2022-12-11T03:33:45;2.20;99.90
15834;DHT22;8017;50.812;4.934;2022-12-11T03:36:49;2.20;99.90
15834;DHT22;8017;50.812;4.934;2022-12-11T03:39:55;2.20;99.90
15834;DHT22;8017;50.812;4.934;2022-12-11T03:42:59;2.30;99.90
15834;DHT22;8017;50.812;4.934;2022-12-11T03:46:02;2.20;99.90
15834;DHT22;8017;50.812;4.934;2022-12-11T03:49:08;2.10;99.90
15834;DHT22;8017;50.812;4.934;2022-12-11T03:52:12;2.20;99.90
15834;DHT22;8017;50.812;4.934;2022-12-11T03:55:16;2.30;99.90
15834;DHT22;8017;50.812;4.934;2022-12-11T03:58:19;2.20;99.90
15834;DHT22;8017;50.812;4.934;2022-12-11T04:01:23;2.20;99.90
15834;DHT22;8017;50.812;4.934;2022-12-11T04:04:25;2.10;99.90
15834;DHT22;8017;50.812;4.934;2022-12-11T04:07:26;2.00;99.90
15834;DHT22;8017;50.812;4.934;2022-12-11T04:10:30;2.10;99.90
15834;DHT22;8017;50.812;4.934;2022-12-11T04:13:32;2.10;99.90
15834;DHT22;8017;50.812;4.934;2022-12-11T04:16:35;2.10;99.90
15834;DHT22;8017;50.812;4.934;2022-12-11T04:19:36;2.10;99.90
15834;DHT22;8017;50.812;4.934;2022-12-11T04:22:56;2.20;99.90
15834;DHT22;8017;50.812;4.934;2022-12-11T04:26:17;2.20;99.90
15834;DHT22;8017;50.812;4.934;2022-12-11T04:29:19;2.00;99.90
15834;DHT22;8017;50.812;4.934;2022-12-11T04:32:22;2.10;99.90
15834;DHT22;8017;50.812;4.934;2022-12-11T04:35:24;2.10;99.90
15834;DHT22;8017;50.812;4.934;2022-12-11T04:38:26;2.10;99.90
15834;DHT22;8017;50.812;4.934;2022-12-11T04:41:28;2.20;99.90
15834;DHT22;8017;50.812;4.934;2022-12-11T04:44:30;2.20;99.90
15834;DHT22;8017;50.812;4.934;2022-12-11T04:47:35;2.20;99.90
15834;DHT22;8017;50.812;4.934;2022-12-11T04:50:37;2.10;99.90
15834;DHT22;8017;50.812;4.934;2022-12-11T04:53:39;2.10;99.90
15834;DHT22;8017;50.812;4.934;2022-12-11T04:56:41;2.20;99.90
15834;DHT22;8017;50.812;4.934;2022-12-11T04:59:43;2.10;99.90
15834;DHT22;8017;50.812;4.934;2022-12-11T05:02:46;2.10;99.90
15834;DHT22;8017;50.812;4.934;2022-12-11T05:05:48;2.10;99.90
15834;DHT22;8017;50.812;4.934;2022-12-11T05:08:50;2.00;99.90
15834;DHT22;8017;50.812;4.934;2022-12-11T05:11:53;2.10;99.90
15834;DHT22;8017;50.812;4.934;2022-12-11T05:14:55;1.90;99.90
15834;DHT22;8017;50.812;4.934;2022-12-11T05:17:58;1.90;99.90
15834;DHT22;8017;50.812;4.934;2022-12-11T05:21:01;1.90;99.90
15834;DHT22;8017;50.812;4.934;2022-12-11T05:24:04;2.00;99.90
15834;DHT22;8017;50.812;4.934;2022-12-11T05:27:06;2.10;99.90
15834;DHT22;8017;50.812;4.934;2022-12-11T05:30:10;2.20;99.90
15834;DHT22;8017;50.812;4.934;2022-12-11T05:33:13;2.10;99.90
15834;DHT22;8017;50.812;4.934;2022-12-11T05:36:17;2.10;99.90
15834;DHT22;8017;50.812;4.934;2022-12-11T05:39:19;2.00;99.90
15834;DHT22;8017;50.812;4.934;2022-12-11T05:42:21;2.00;99.90
15834;DHT22;8017;50.812;4.934;2022-12-11T05:45:23;1.90;99.90
15834;DHT22;8017;50.812;4.934;2022-12-11T05:48:26;2.00;99.90
15834;DHT22;8017;50.812;4.934;2022-12-11T05:51:29;2.00;99.90
15834;DHT22;8017;50.812;4.934;2022-12-11T05:54:31;2.00;99.90
15834;DHT22;8017;50.812;4.934;2022-12-11T05:57:33;2.00;99.90
15834;DHT22;8017;50.812;4.934;2022-12-11T06:00:35;2.00;99.90
15834;DHT22;8017;50.812;4.934;2022-12-11T06:03:38;2.10;99.90
15834;DHT22;8017;50.812;4.934;2022-12-11T06:06:40;2.00;99.90
15834;DHT22;8017;50.812;4.934;2022-12-11T06:09:43;2.00;99.90
15834;DHT22;8017;50.812;4.934;2022-12-11T06:12:45;2.10;99.90
15834;DHT22;8017;50.812;4.934;2022-12-11T06:15:47;2.10;99.90
15834;DHT22;8017;50.812;4.934;2022-12-11T06:18:50;2.10;99.90
15834;DHT22;8017;50.812;4.934;2022-12-11T06:21:52;2.10;99.90
15834;DHT22;8017;50.812;4.934;2022-12-11T06:24:54;2.00;99.90
15834;DHT22;8017;50.812;4.934;2022-12-11T06:27:56;1.90;99.90
15834;DHT22;8017;50.812;4.934;2022-12-11T06:30:59;2.00;99.90
15834;DHT22;8017;50.812;4.934;2022-12-11T06:34:02;2.10;99.90
15834;DHT22;8017;50.812;4.934;2022-12-11T06:37:04;2.10;99.90
15834;DHT22;8017;50.812;4.934;2022-12-11T06:40:08;2.20;99.90
15834;DHT22;8017;50.812;4.934;2022-12-11T06:43:12;2.20;99.90
15834;DHT22;8017;50.812;4.934;2022-12-11T06:46:16;2.10;99.90
15834;DHT22;8017;50.812;4.934;2022-12-11T06:49:19;2.00;99.90
15834;DHT22;8017;50.812;4.934;2022-12-11T06:52:21;2.10;99.90
15834;DHT22;8017;50.812;4.934;2022-12-11T06:55:23;2.00;99.90
15834;DHT22;8017;50.812;4.934;2022-12-11T06:58:25;2.10;99.90
15834;DHT22;8017;50.812;4.934;2022-12-11T07:01:27;2.10;99.90
15834;DHT22;8017;50.812;4.934;2022-12-11T07:04:31;2.10;99.90
15834;DHT22;8017;50.812;4.934;2022-12-11T07:07:32;2.10;99.90
15834;DHT22;8017;50.812;4.934;2022-12-11T07:10:35;2.10;99.90
15834;DHT22;8017;50.812;4.934;2022-12-11T07:13:36;2.10;99.90
15834;DHT22;8017;50.812;4.934;2022-12-11T07:16:38;2.10;99.90
15834;DHT22;8017;50.812;4.934;2022-12-11T07:19:42;2.10;99.90
15834;DHT22;8017;50.812;4.934;2022-12-11T07:22:44;2.10;99.90
15834;DHT22;8017;50.812;4.934;2022-12-11T07:25:46;2.10;99.90
15834;DHT22;8017;50.812;4.934;2022-12-11T07:28:48;2.10;99.90
15834;DHT22;8017;50.812;4.934;2022-12-11T07:31:49;2.20;99.90
15834;DHT22;8017;50.812;4.934;2022-12-11T07:34:53;2.00;99.90
15834;DHT22;8017;50.812;4.934;2022-12-11T07:37:54;2.00;99.90
15834;DHT22;8017;50.812;4.934;2022-12-11T07:40:59;2.00;99.90
15834;DHT22;8017;50.812;4.934;2022-12-11T07:44:02;2.10;99.90
15834;DHT22;8017;50.812;4.934;2022-12-11T07:47:04;2.00;99.90
15834;DHT22;8017;50.812;4.934;2022-12-11T07:50:08;2.10;99.90
15834;DHT22;8017;50.812;4.934;2022-12-11T07:53:10;2.10;99.90
15834;DHT22;8017;50.812;4.934;2022-12-11T07:56:13;2.10;99.90
15834;DHT22;8017;50.812;4.934;2022-12-11T07:59:15;2.10;99.90
15834;DHT22;8017;50.812;4.934;2022-12-11T08:02:17;2.00;99.90
15834;DHT22;8017;50.812;4.934;2022-12-11T08:05:20;2.00;99.90
15834;DHT22;8017;50.812;4.934;2022-12-11T08:08:22;2.00;99.90
15834;DHT22;8017;50.812;4.934;2022-12-11T08:11:24;2.10;99.90
15834;DHT22;8017;50.812;4.934;2022-12-11T08:14:26;2.10;99.90
15834;DHT22;8017;50.812;4.934;2022-12-11T08:17:28;2.10;99.90
15834;DHT22;8017;50.812;4.934;2022-12-11T08:20:31;2.10;99.90
15834;DHT22;8017;50.812;4.934;2022-12-11T08:23:33;2.00;99.90
15834;DHT22;8017;50.812;4.934;2022-12-11T08:26:36;2.00;99.90
15834;DHT22;8017;50.812;4.934;2022-12-11T08:29:38;2.10;99.90
15834;DHT22;8017;50.812;4.934;2022-12-11T08:32:40;2.10;99.90
15834;DHT22;8017;50.812;4.934;2022-12-11T08:35:43;2.00;99.90
15834;DHT22;8017;50.812;4.934;2022-12-11T08:38:46;2.10;99.90
15834;DHT22;8017;50.812;4.934;2022-12-11T08:41:48;2.10;99.90
15834;DHT22;8017;50.812;4.934;2022-12-11T08:44:49;2.10;99.90
15834;DHT22;8017;50.812;4.934;2022-12-11T08:47:51;2.00;99.90
15834;DHT22;8017;50.812;4.934;2022-12-11T08:50:58;2.10;99.90
15834;DHT22;8017;50.812;4.934;2022-12-11T08:54:01;2.20;99.90
15834;DHT22;8017;50.812;4.934;2022-12-11T08:57:03;2.20;99.90
15834;DHT22;8017;50.812;4.934;2022-12-11T09:00:06;2.20;99.90
15834;DHT22;8017;50.812;4.934;2022-12-11T09:03:09;2.40;99.90
15834;DHT22;8017;50.812;4.934;2022-12-11T09:06:16;2.30;99.90
15834;DHT22;8017;50.812;4.934;2022-12-11T09:09:18;2.40;99.90
15834;DHT22;8017;50.812;4.934;2022-12-11T09:12:20;2.40;99.90
15834;DHT22;8017;50.812;4.934;2022-12-11T09:15:22;2.40;99.90
15834;DHT22;8017;50.812;4.934;2022-12-11T09:18:24;2.50;99.90
15834;DHT22;8017;50.812;4.934;2022-12-11T09:21:29;2.50;99.90
15834;DHT22;8017;50.812;4.934;2022-12-11T09:24:31;2.60;99.90
15834;DHT22;8017;50.812;4.934;2022-12-11T09:27:33;2.60;99.90
15834;DHT22;8017;50.812;4.934;2022-12-11T09:30:35;2.50;99.90
15834;DHT22;8017;50.812;4.934;2022-12-11T09:33:37;2.50;99.90
15834;DHT22;8017;50.812;4.934;2022-12-11T09:36:41;2.50;99.90
15834;DHT22;8017;50.812;4.934;2022-12-11T09:39:43;2.60;99.90
15834;DHT22;8017;50.812;4.934;2022-12-11T09:42:50;2.60;99.90
15834;DHT22;8017;50.812;4.934;2022-12-11T09:45:53;2.70;99.90
15834;DHT22;8017;50.812;4.934;2022-12-11T09:48:56;2.80;99.90
15834;DHT22;8017;50.812;4.934;2022-12-11T09:52:05;2.90;99.90
15834;DHT22;8017;50.812;4.934;2022-12-11T09:55:13;2.90;99.90
15834;DHT22;8017;50.812;4.934;2022-12-11T09:58:22;2.90;99.90
15834;DHT22;8017;50.812;4.934;2022-12-11T10:01:32;3.00;99.90
15834;DHT22;8017;50.812;4.934;2022-12-11T10:04:41;2.90;99.90
15834;DHT22;8017;50.812;4.934;2022-12-11T10:07:57;2.80;99.90
15834;DHT22;8017;50.812;4.934;2022-12-11T10:11:15;3.00;99.90
15834;DHT22;8017;50.812;4.934;2022-12-11T10:14:27;3.00;99.90
15834;DHT22;8017;50.812;4.934;2022-12-11T10:17:34;2.90;99.90
15834;DHT22;8017;50.812;4.934;2022-12-11T10:20:37;2.80;99.90
15834;DHT22;8017;50.812;4.934;2022-12-11T10:23:48;2.80;99.90
15834;DHT22;8017;50.812;4.934;2022-12-11T10:26:54;2.70;99.90
15834;DHT22;8017;50.812;4.934;2022-12-11T10:30:03;2.80;99.90
15834;DHT22;8017;50.812;4.934;2022-12-11T10:33:13;2.60;99.90
15834;DHT22;8017;50.812;4.934;2022-12-11T10:36:24;2.70;99.90
15834;DHT22;8017;50.812;4.934;2022-12-11T10:39:28;3.00;99.90
15834;DHT22;8017;50.812;4.934;2022-12-11T10:42:30;3.10;99.90
15834;DHT22;8017;50.812;4.934;2022-12-11T10:45:32;3.10;99.90
15834;DHT22;8017;50.812;4.934;2022-12-11T10:48:34;3.10;99.90
15834;DHT22;8017;50.812;4.934;2022-12-11T10:51:36;3.40;99.90
15834;DHT22;8017;50.812;4.934;2022-12-11T10:54:42;3.50;99.90
15834;DHT22;8017;50.812;4.934;2022-12-11T10:57:45;3.60;99.90
15834;DHT22;8017;50.812;4.934;2022-12-11T11:01:02;3.50;99.90
15834;DHT22;8017;50.812;4.934;2022-12-11T11:04:13;3.30;99.90
15834;DHT22;8017;50.812;4.934;2022-12-11T11:07:19;3.30;99.90
15834;DHT22;8017;50.812;4.934;2022-12-11T11:10:23;3.40;99.90
15834;DHT22;8017;50.812;4.934;2022-12-11T11:13:27;3.40;99.90
15834;DHT22;8017;50.812;4.934;2022-12-11T11:16:29;3.40;99.90
15834;DHT22;8017;50.812;4.934;2022-12-11T11:19:33;3.30;99.90
15834;DHT22;8017;50.812;4.934;2022-12-11T11:22:38;3.30;99.90
15834;DHT22;8017;50.812;4.934;2022-12-11T11:25:50;3.40;99.90
15834;DHT22;8017;50.812;4.934;2022-12-11T11:28:55;3.30;99.90
15834;DHT22;8017;50.812;4.934;2022-12-11T11:32:02;3.40;99.90
15834;DHT22;8017;50.812;4.934;2022-12-11T11:35:17;3.40;99.90
15834;DHT22;8017;50.812;4.934;2022-12-11T11:38:21;3.20;99.90
15834;DHT22;8017;50.812;4.934;2022-12-11T11:41:28;3.10;99.90
15834;DHT22;8017;50.812;4.934;2022-12-11T11:44:35;2.90;99.90
15834;DHT22;8017;50.812;4.934;2022-12-11T11:47:44;3.10;99.90
15834;DHT22;8017;50.812;4.934;2022-12-11T11:50:51;3.20;99.90
15834;DHT22;8017;50.812;4.934;2022-12-11T11:53:56;3.10;99.90
15834;DHT22;8017;50.812;4.934;2022-12-11T11:57:14;3.00;99.90
15834;DHT22;8017;50.812;4.934;2022-12-11T12:00:20;2.80;99.90
15834;DHT22;8017;50.812;4.934;2022-12-11T12:03:23;2.90;99.90
15834;DHT22;8017;50.812;4.934;2022-12-11T12:06:33;3.00;99.90
15834;DHT22;8017;50.812;4.934;2022-12-11T12:09:44;3.00;99.90
15834;DHT22;8017;50.812;4.934;2022-12-11T12:12:55;3.10;99.90
15834;DHT22;8017;50.812;4.934;2022-12-11T12:15:59;3.40;99.90
15834;DHT22;8017;50.812;4.934;2022-12-11T12:19:10;3.50;99.90
15834;DHT22;8017;50.812;4.934;2022-12-11T12:22:27;3.70;99.90
15834;DHT22;8017;50.812;4.934;2022-12-11T12:25:36;3.90;99.90
15834;DHT22;8017;50.812;4.934;2022-12-11T12:28:46;4.10;99.90
15834;DHT22;8017;50.812;4.934;2022-12-11T12:32:02;4.10;99.90
15834;DHT22;8017;50.812;4.934;2022-12-11T12:35:12;3.80;99.90
15834;DHT22;8017;50.812;4.934;2022-12-11T12:38:21;3.80;99.90
15834;DHT22;8017;50.812;4.934;2022-12-11T12:41:34;3.70;99.90
15834;DHT22;8017;50.812;4.934;2022-12-11T12:44:47;3.80;99.90
15834;DHT22;8017;50.812;4.934;2022-12-11T12:47:52;3.60;99.90
15834;DHT22;8017;50.812;4.934;2022-12-11T12:50:55;3.50;99.90
15834;DHT22;8017;50.812;4.934;2022-12-11T12:54:00;3.40;99.90
15834;DHT22;8017;50.812;4.934;2022-12-11T12:57:03;3.30;99.90
15834;DHT22;8017;50.812;4.934;2022-12-11T13:00:08;3.30;99.90
15834;DHT22;8017;50.812;4.934;2022-12-11T13:03:13;3.30;99.90
15834;DHT22;8017;50.812;4.934;2022-12-11T13:06:27;3.00;99.90
15834;DHT22;8017;50.812;4.934;2022-12-11T13:09:29;2.90;99.90
15834;DHT22;8017;50.812;4.934;2022-12-11T13:12:43;2.90;99.90
15834;DHT22;8017;50.812;4.934;2022-12-11T13:15:46;2.80;99.90
15834;DHT22;8017;50.812;4.934;2022-12-11T13:18:48;2.80;99.90
15834;DHT22;8017;50.812;4.934;2022-12-11T13:21:57;2.80;99.90
15834;DHT22;8017;50.812;4.934;2022-12-11T13:25:01;3.00;99.90
15834;DHT22;8017;50.812;4.934;2022-12-11T13:28:26;3.10;99.90
15834;DHT22;8017;50.812;4.934;2022-12-11T13:31:34;3.40;99.90
15834;DHT22;8017;50.812;4.934;2022-12-11T13:34:39;3.50;99.90
15834;DHT22;8017;50.812;4.934;2022-12-11T13:37:43;3.50;99.90
15834;DHT22;8017;50.812;4.934;2022-12-11T13:40:51;3.50;99.90
15834;DHT22;8017;50.812;4.934;2022-12-11T13:43:54;3.60;99.90
15834;DHT22;8017;50.812;4.934;2022-12-11T13:47:01;3.60;99.90
15834;DHT22;8017;50.812;4.934;2022-12-11T13:50:12;3.60;99.90
15834;DHT22;8017;50.812;4.934;2022-12-11T13:53:16;3.60;99.90
15834;DHT22;8017;50.812;4.934;2022-12-11T13:56:20;3.60;99.90
15834;DHT22;8017;50.812;4.934;2022-12-11T13:59:28;3.60;99.90
15834;DHT22;8017;50.812;4.934;2022-12-11T14:02:33;3.50;99.90
15834;DHT22;8017;50.812;4.934;2022-12-11T14:05:39;3.50;99.90
15834;DHT22;8017;50.812;4.934;2022-12-11T14:08:43;3.60;99.90
15834;DHT22;8017;50.812;4.934;2022-12-11T14:11:46;3.50;99.90
15834;DHT22;8017;50.812;4.934;2022-12-11T14:14:50;3.40;99.90
15834;DHT22;8017;50.812;4.934;2022-12-11T14:17:55;3.50;99.90
15834;DHT22;8017;50.812;4.934;2022-12-11T14:21:00;3.50;99.90
15834;DHT22;8017;50.812;4.934;2022-12-11T14:24:03;3.50;99.90
15834;DHT22;8017;50.812;4.934;2022-12-11T14:27:15;3.50;99.90
15834;DHT22;8017;50.812;4.934;2022-12-11T14:30:22;3.50;99.90
15834;DHT22;8017;50.812;4.934;2022-12-11T14:33:29;3.40;99.90
15834;DHT22;8017;50.812;4.934;2022-12-11T14:36:34;3.40;99.90
15834;DHT22;8017;50.812;4.934;2022-12-11T14:39:39;3.30;99.90
15834;DHT22;8017;50.812;4.934;2022-12-11T14:42:44;3.20;99.90
15834;DHT22;8017;50.812;4.934;2022-12-11T14:45:48;3.20;99.90
15834;DHT22;8017;50.812;4.934;2022-12-11T14:48:55;3.10;99.90
15834;DHT22;8017;50.812;4.934;2022-12-11T14:51:59;3.00;99.90
15834;DHT22;8017;50.812;4.934;2022-12-11T14:55:05;3.00;99.90
15834;DHT22;8017;50.812;4.934;2022-12-11T14:58:14;3.00;99.90
15834;DHT22;8017;50.812;4.934;2022-12-11T15:01:23;3.00;99.90
15834;DHT22;8017;50.812;4.934;2022-12-11T15:04:29;3.00;99.90
15834;DHT22;8017;50.812;4.934;2022-12-11T15:07:32;3.00;99.90
15834;DHT22;8017;50.812;4.934;2022-12-11T15:10:36;3.00;99.90
15834;DHT22;8017;50.812;4.934;2022-12-11T15:13:49;2.90;99.90
15834;DHT22;8017;50.812;4.934;2022-12-11T15:16:54;2.90;99.90
15834;DHT22;8017;50.812;4.934;2022-12-11T15:20:02;2.90;99.90
15834;DHT22;8017;50.812;4.934;2022-12-11T15:23:06;2.90;99.90
15834;DHT22;8017;50.812;4.934;2022-12-11T15:26:08;2.90;99.90
15834;DHT22;8017;50.812;4.934;2022-12-11T15:29:23;3.00;99.90
15834;DHT22;8017;50.812;4.934;2022-12-11T15:32:29;3.00;99.90
15834;DHT22;8017;50.812;4.934;2022-12-11T15:35:33;3.00;99.90
15834;DHT22;8017;50.812;4.934;2022-12-11T15:38:36;3.00;99.90
15834;DHT22;8017;50.812;4.934;2022-12-11T15:41:41;3.10;99.90
15834;DHT22;8017;50.812;4.934;2022-12-11T15:44:51;3.00;99.90
15834;DHT22;8017;50.812;4.934;2022-12-11T15:47:56;3.10;99.90
15834;DHT22;8017;50.812;4.934;2022-12-11T15:51:00;3.10;99.90
15834;DHT22;8017;50.812;4.934;2022-12-11T15:54:03;3.00;99.90
15834;DHT22;8017;50.812;4.934;2022-12-11T15:57:08;3.00;99.90
15834;DHT22;8017;50.812;4.934;2022-12-11T16:00:14;3.00;99.90
15834;DHT22;8017;50.812;4.934;2022-12-11T16:03:18;3.00;99.90
15834;DHT22;8017;50.812;4.934;2022-12-11T16:06:21;3.00;99.90
15834;DHT22;8017;50.812;4.934;2022-12-11T16:09:23;3.00;99.90
15834;DHT22;8017;50.812;4.934;2022-12-11T16:12:25;2.90;99.90
15834;DHT22;8017;50.812;4.934;2022-12-11T16:15:27;3.00;99.90
15834;DHT22;8017;50.812;4.934;2022-12-11T16:18:30;2.90;99.90
15834;DHT22;8017;50.812;4.934;2022-12-11T16:21:33;2.90;99.90
15834;DHT22;8017;50.812;4.934;2022-12-11T16:24:35;2.90;99.90
15834;DHT22;8017;50.812;4.934;2022-12-11T16:27:37;2.80;99.90
15834;DHT22;8017;50.812;4.934;2022-12-11T16:30:40;2.90;99.90
15834;DHT22;8017;50.812;4.934;2022-12-11T16:33:43;2.80;99.90
15834;DHT22;8017;50.812;4.934;2022-12-11T16:36:46;2.80;99.90
15834;DHT22;8017;50.812;4.934;2022-12-11T16:39:48;2.70;99.90
15834;DHT22;8017;50.812;4.934;2022-12-11T16:42:50;2.60;99.90
15834;DHT22;8017;50.812;4.934;2022-12-11T16:45:53;2.60;99.90
15834;DHT22;8017;50.812;4.934;2022-12-11T16:48:55;2.60;99.90
15834;DHT22;8017;50.812;4.934;2022-12-11T16:51:58;2.70;99.90
15834;DHT22;8017;50.812;4.934;2022-12-11T16:55:00;2.60;99.90
15834;DHT22;8017;50.812;4.934;2022-12-11T16:58:02;2.60;99.90
15834;DHT22;8017;50.812;4.934;2022-12-11T17:01:08;2.70;99.90
15834;DHT22;8017;50.812;4.934;2022-12-11T17:04:11;2.70;99.90
15834;DHT22;8017;50.812;4.934;2022-12-11T17:07:14;2.70;99.90
15834;DHT22;8017;50.812;4.934;2022-12-11T17:10:16;2.70;99.90
15834;DHT22;8017;50.812;4.934;2022-12-11T17:13:18;2.80;99.90
15834;DHT22;8017;50.812;4.934;2022-12-11T17:16:21;2.70;99.90
15834;DHT22;8017;50.812;4.934;2022-12-11T17:19:25;2.70;99.90
15834;DHT22;8017;50.812;4.934;2022-12-11T17:22:29;2.70;99.90
15834;DHT22;8017;50.812;4.934;2022-12-11T17:25:30;2.70;99.90
15834;DHT22;8017;50.812;4.934;2022-12-11T17:28:33;2.70;99.90
15834;DHT22;8017;50.812;4.934;2022-12-11T17:31:35;2.60;99.90
15834;DHT22;8017;50.812;4.934;2022-12-11T17:34:37;2.50;99.90
15834;DHT22;8017;50.812;4.934;2022-12-11T17:37:40;2.50;99.90
15834;DHT22;8017;50.812;4.934;2022-12-11T17:40:43;2.40;99.90
15834;DHT22;8017;50.812;4.934;2022-12-11T17:43:45;2.40;99.90
15834;DHT22;8017;50.812;4.934;2022-12-11T17:46:47;2.40;99.90
15834;DHT22;8017;50.812;4.934;2022-12-11T17:49:49;2.30;99.90
15834;DHT22;8017;50.812;4.934;2022-12-11T17:52:53;2.10;99.90
15834;DHT22;8017;50.812;4.934;2022-12-11T17:55:57;2.00;99.90
15834;DHT22;8017;50.812;4.934;2022-12-11T17:58:59;2.00;99.90
15834;DHT22;8017;50.812;4.934;2022-12-11T18:02:01;1.70;99.90
15834;DHT22;8017;50.812;4.934;2022-12-11T18:05:04;1.50;99.90
15834;DHT22;8017;50.812;4.934;2022-12-11T18:08:07;1.30;99.90
15834;DHT22;8017;50.812;4.934;2022-12-11T18:11:11;1.10;99.90
15834;DHT22;8017;50.812;4.934;2022-12-11T18:14:13;0.80;99.90
15834;DHT22;8017;50.812;4.934;2022-12-11T18:17:15;0.60;99.90
15834;DHT22;8017;50.812;4.934;2022-12-11T18:20:17;0.50;99.90
15834;DHT22;8017;50.812;4.934;2022-12-11T18:23:20;0.40;99.90
15834;DHT22;8017;50.812;4.934;2022-12-11T18:26:22;0.30;99.90
15834;DHT22;8017;50.812;4.934;2022-12-11T18:29:24;0.20;99.90
15834;DHT22;8017;50.812;4.934;2022-12-11T18:32:26;0.10;99.90
15834;DHT22;8017;50.812;4.934;2022-12-11T18:35:29;0.00;99.90
15834;DHT22;8017;50.812;4.934;2022-12-11T18:38:33;-0.10;99.90
15834;DHT22;8017;50.812;4.934;2022-12-11T18:41:35;0.00;99.90
15834;DHT22;8017;50.812;4.934;2022-12-11T18:44:37;-0.20;99.90
15834;DHT22;8017;50.812;4.934;2022-12-11T18:47:38;-0.20;99.90
15834;DHT22;8017;50.812;4.934;2022-12-11T18:50:43;-0.30;99.90
15834;DHT22;8017;50.812;4.934;2022-12-11T18:53:47;-0.30;99.90
15834;DHT22;8017;50.812;4.934;2022-12-11T18:56:49;-0.20;99.90
15834;DHT22;8017;50.812;4.934;2022-12-11T18:59:51;-0.30;99.90
15834;DHT22;8017;50.812;4.934;2022-12-11T19:02:54;-0.30;99.90
15834;DHT22;8017;50.812;4.934;2022-12-11T19:05:56;-0.40;99.90
15834;DHT22;8017;50.812;4.934;2022-12-11T19:09:00;-0.40;99.90
15834;DHT22;8017;50.812;4.934;2022-12-11T19:12:02;-0.50;99.90
15834;DHT22;8017;50.812;4.934;2022-12-11T19:15:05;-0.50;99.90
15834;DHT22;8017;50.812;4.934;2022-12-11T19:18:08;-0.50;99.90
15834;DHT22;8017;50.812;4.934;2022-12-11T19:21:11;-0.60;99.90
15834;DHT22;8017;50.812;4.934;2022-12-11T19:24:17;-0.60;99.90
15834;DHT22;8017;50.812;4.934;2022-12-11T19:27:19;-0.60;99.90
15834;DHT22;8017;50.812;4.934;2022-12-11T19:30:21;-0.60;99.90
15834;DHT22;8017;50.812;4.934;2022-12-11T19:33:23;-0.70;99.90
15834;DHT22;8017;50.812;4.934;2022-12-11T19:36:27;-0.80;99.90
15834;DHT22;8017;50.812;4.934;2022-12-11T19:39:31;-0.70;99.90
15834;DHT22;8017;50.812;4.934;2022-12-11T19:42:33;-0.70;99.90
15834;DHT22;8017;50.812;4.934;2022-12-11T19:45:35;-0.80;99.90
15834;DHT22;8017;50.812;4.934;2022-12-11T19:48:38;-0.80;99.90
15834;DHT22;8017;50.812;4.934;2022-12-11T19:51:45;-0.90;99.90
15834;DHT22;8017;50.812;4.934;2022-12-11T19:55:00;-0.90;99.90
15834;DHT22;8017;50.812;4.934;2022-12-11T19:58:02;-0.90;99.90
15834;DHT22;8017;50.812;4.934;2022-12-11T20:01:04;-0.90;99.90
15834;DHT22;8017;50.812;4.934;2022-12-11T20:04:08;-1.00;99.90